Time;durP1;ratioP1;P1;durP2;ratioP2;P2;SDS_P1;SDS_P2;PMS_P1;PMS_P2;Temp;Humidity;BMP_temperature;BMP_pressure;BME280_temperature;BME280_humidity;BME280_pressure;Samples;Min_cycle;Max_cycle;Signal;HPM_P1;HPM_P2
2023/02/16 00:00:43;;;;;;;5.32;4.88;;;;;;;6.23;43.84;96373.50;5051598;28;20696;-68
2023/02/16 00:03:20;;;;;;;6.25;5.75;;;;;;;6.06;43.91;96372.19;5051423;28;20204;-68
2023/02/16 00:05:48;;;;;;;20.85;6.47;;;;;;;6.15;43.54;96386.66;5050512;28;20215;-67
2023/02/16 00:08:15;;;;;;;5.30;4.80;;;;;;;5.94;43.61;96379.75;5050440;28;20254;-66
2023/02/16 00:13:43;;;;;;;13.20;7.72;;;;;;;5.76;44.05;96383.78;5049521;28;20212;-68
2023/02/16 00:13:43;;;;;;;4.32;3.97;;;;;;;5.62;44.30;96390.66;5050606;28;20254;-66
2023/02/16 00:16:14;;;;;;;9.38;6.93;;;;;;;5.59;44.64;96387.63;5049285;28;20653;-69
2023/02/16 00:18:41;;;;;;;6.40;5.25;;;;;;;5.83;44.12;96376.84;5050563;28;20323;-68
2023/02/16 00:21:09;;;;;;;4.85;4.45;;;;;;;5.75;44.21;96379.53;5049699;28;20212;-65
2023/02/16 00:23:36;;;;;;;6.63;5.53;;;;;;;5.55;44.56;96381.19;5050065;28;20208;-67
2023/02/16 00:26:04;;;;;;;4.82;3.38;;;;;;;5.62;44.12;96363.88;5049972;28;20686;-66
2023/02/16 00:28:31;;;;;;;2.63;2.47;;;;;;;5.62;44.59;96379.47;5050036;28;20212;-67
2023/02/16 00:30:58;;;;;;;5.85;5.32;;;;;;;5.69;44.54;96381.09;5049715;28;20768;-68
2023/02/16 00:33:25;;;;;;;34.63;8.88;;;;;;;5.61;44.10;96373.47;5049904;28;20205;-66
2023/02/16 00:35:52;;;;;;;16.73;4.00;;;;;;;5.46;45.17;96385.72;5050090;28;20188;-66
2023/02/16 00:38:19;;;;;;;5.03;3.75;;;;;;;5.47;44.59;96376.97;5050784;28;20203;-67
2023/02/16 00:40:46;;;;;;;2.38;2.22;;;;;;;5.28;45.29;96369.78;5049109;28;20193;-67
2023/02/16 00:43:24;;;;;;;3.97;3.58;;;;;;;5.42;45.01;96375.91;5049774;28;20192;-69
2023/02/16 00:45:51;;;;;;;3.28;3.08;;;;;;;5.40;44.60;96370.09;5050129;28;20204;-66
2023/02/16 00:48:18;;;;;;;13.27;7.63;;;;;;;5.33;44.86;96379.63;5048596;28;20687;-66
2023/02/16 00:50:45;;;;;;;4.43;4.07;;;;;;;5.32;45.17;96378.00;5049413;28;20195;-66
2023/02/16 00:53:13;;;;;;;4.00;3.17;;;;;;;5.32;45.38;96378.00;5049653;28;20619;-66
2023/02/16 00:55:41;;;;;;;8.73;4.70;;;;;;;5.26;45.29;96384.75;5049252;28;20659;-66
2023/02/16 00:58:24;;;;;;;13.88;5.25;;;;;;;5.35;44.94;96377.63;5049287;28;20722;-68
2023/02/16 01:00:54;;;;;;;6.45;5.72;;;;;;;5.22;45.05;96377.53;5047697;28;20955;-67
2023/02/16 01:03:27;;;;;;;23.85;4.65;;;;;;;5.09;45.46;96373.78;5049639;28;20203;-67
2023/02/16 01:11:30;;;;;;;3.83;2.88;;;;;;;4.91;45.02;96350.03;5049909;28;20613;-71
2023/02/16 01:13:57;;;;;;;4.93;3.80;;;;;;;4.82;45.16;96356.34;5049447;28;20215;-68
2023/02/16 01:16:32;;;;;;;8.60;6.10;;;;;;;4.91;45.20;96368.22;5049726;28;20211;-67
2023/02/16 01:19:02;;;;;;;3.05;2.67;;;;;;;5.00;44.84;96358.50;5048526;28;20670;-68
2023/02/16 01:21:29;;;;;;;3.15;2.88;;;;;;;5.30;44.21;96354.00;5048986;28;20632;-69
2023/02/16 01:23:55;;;;;;;5.30;4.90;;;;;;;4.86;45.26;96342.00;5049429;28;20655;-68
2023/02/16 01:26:22;;;;;;;7.63;3.75;;;;;;;5.04;44.79;96360.56;5047076;28;20554;-68
2023/02/16 01:28:50;;;;;;;10.25;8.15;;;;;;;5.00;45.03;96350.72;5049167;28;20278;-66
2023/02/16 01:31:17;;;;;;;6.07;3.10;;;;;;;4.98;45.24;96345.72;5048306;28;20207;-67
2023/02/16 01:33:44;;;;;;;4.15;3.33;;;;;;;4.88;45.22;96340.03;5049571;28;20222;-68
2023/02/16 01:36:35;;;;;;;3.75;3.40;;;;;;;5.08;45.25;96351.41;5048869;28;20926;-69
2023/02/16 01:39:06;;;;;;;2.42;1.48;;;;;;;4.89;45.07;96352.00;5049019;28;20196;-67
2023/02/16 01:42:09;;;;;;;5.78;3.92;;;;;;;5.04;44.95;96346.75;5048397;28;20200;-67
2023/02/16 01:44:39;;;;;;;4.18;3.70;;;;;;;4.96;44.79;96326.91;5047725;28;20270;-69
2023/02/16 01:47:23;;;;;;;7.38;3.67;;;;;;;4.93;44.86;96336.88;5048238;28;20227;-67
2023/02/16 01:49:51;;;;;;;3.65;3.03;;;;;;;5.07;44.96;96338.63;5048803;28;20212;-68
2023/02/16 01:52:42;;;;;;;1.77;1.67;;;;;;;4.76;46.03;96331.09;5059586;28;20254;-69
2023/02/16 01:55:27;;;;;;;5.90;3.83;;;;;;;4.91;45.04;96339.66;5047769;28;20215;-67
2023/02/16 01:57:58;;;;;;;5.15;4.78;;;;;;;4.55;45.41;96312.91;5048954;28;20199;-68
2023/02/16 02:00:50;;;;;;;2.65;2.45;;;;;;;4.75;45.57;96334.69;5048553;28;20331;-68
2023/02/16 02:06:20;;;;;;;12.63;4.35;;;;;;;4.65;45.41;96331.56;5046770;28;20228;-67
2023/02/16 02:08:53;;;;;;;6.60;4.32;;;;;;;4.77;45.40;96335.31;5048861;28;20872;-66
2023/02/16 02:11:28;;;;;;;8.48;7.10;;;;;;;4.81;44.98;96339.16;5046389;28;20306;-68
2023/02/16 02:14:03;;;;;;;6.95;6.25;;;;;;;4.75;45.33;96339.06;5047424;28;20192;-68
2023/02/16 02:16:30;;;;;;;7.55;5.35;;;;;;;4.45;45.37;96338.38;5046588;28;20201;-68
2023/02/16 02:18:58;;;;;;;7.68;2.42;;;;;;;4.59;45.17;96340.13;5048380;28;20242;-68
2023/02/16 02:24:51;;;;;;;2.67;2.45;;;;;;;4.68;45.20;96339.03;5047414;28;20192;-67
2023/02/16 02:27:25;;;;;;;4.53;3.45;;;;;;;4.44;45.77;96331.56;5046581;28;20305;-67
2023/02/16 02:30:14;;;;;;;4.25;3.75;;;;;;;4.32;46.21;96333.03;5046914;28;20249;-68
2023/02/16 02:33:05;;;;;;;6.85;6.15;;;;;;;4.26;45.78;96328.53;5046948;28;20200;-67
2023/02/16 02:35:56;;;;;;;9.95;6.88;;;;;;;4.27;45.78;96335.31;5047346;28;20204;-67
2023/02/16 02:38:23;;;;;;;5.63;4.20;;;;;;;4.24;46.06;96334.88;5049138;28;20206;-67
2023/02/16 02:40:55;;;;;;;6.97;5.15;;;;;;;4.23;46.04;96333.28;5051675;28;20420;-67
2023/02/16 02:43:44;;;;;;;2.33;2.10;;;;;;;4.40;45.44;96325.13;5050643;28;20204;-67
2023/02/16 02:46:17;;;;;;;3.33;2.22;;;;;;;4.43;44.92;96314.38;5050537;28;20232;-69
2023/02/16 02:48:45;;;;;;;6.55;4.47;;;;;;;4.31;44.99;96310.63;5050088;28;20598;-69
2023/02/16 02:51:29;;;;;;;14.02;7.35;;;;;;;4.32;45.19;96314.84;5049798;28;20188;-68
2023/02/16 03:00:40;;;;;;;16.85;8.65;;;;;;;4.21;45.55;96330.88;5056345;28;20679;-66
2023/02/16 03:03:26;;;;;;;10.40;6.93;;;;;;;4.17;45.71;96329.63;5051477;28;20207;-66
2023/02/16 03:05:58;;;;;;;7.20;5.65;;;;;;;4.15;45.68;96331.59;5059813;28;20200;-67
2023/02/16 03:08:28;;;;;;;7.13;5.55;;;;;;;4.33;45.47;96341.59;5053722;28;20201;-67
2023/02/16 03:14:01;;;;;;;7.97;7.15;;;;;;;4.41;45.41;96326.75;5051805;28;20263;-68
2023/02/16 03:16:38;;;;;;;11.98;4.78;;;;;;;4.19;45.57;96311.28;5051167;28;20203;-68
2023/02/16 03:30:23;;;;;;;5.05;4.53;;;;;;;4.31;45.42;96331.41;5053268;28;20236;-67
2023/02/16 03:32:51;;;;;;;3.42;3.13;;;;;;;3.78;45.82;96326.50;5053019;28;20220;-67
2023/02/16 03:35:18;;;;;;;17.50;5.65;;;;;;;3.76;45.91;96320.72;5051396;28;20242;-69
2023/02/16 03:37:45;;;;;;;8.38;4.43;;;;;;;3.80;45.80;96329.72;5051037;28;20195;-70
2023/02/16 03:40:27;;;;;;;4.85;3.78;;;;;;;3.99;45.84;96326.59;5063873;28;20228;-69
2023/02/16 03:43:12;;;;;;;9.32;6.72;;;;;;;3.86;45.81;96326.44;5051360;28;20655;-67
2023/02/16 03:45:42;;;;;;;17.05;9.88;;;;;;;3.76;45.93;96323.31;5050809;28;20296;-68
2023/02/16 03:48:10;;;;;;;3.05;2.70;;;;;;;3.87;45.66;96330.63;5064886;28;20219;-66
2023/02/16 03:50:37;;;;;;;6.35;3.25;;;;;;;3.87;45.24;96322.84;5051099;28;20263;-70
2023/02/16 03:53:06;;;;;;;8.30;7.50;;;;;;;3.75;45.47;96324.28;5052003;28;20320;-68
2023/02/16 03:55:39;;;;;;;10.18;5.47;;;;;;;3.96;45.30;96332.13;5051556;28;20614;-68
2023/02/16 03:58:09;;;;;;;4.20;3.90;;;;;;;3.82;45.33;96341.53;5050623;28;20200;-68
2023/02/16 04:00:36;;;;;;;7.63;5.78;;;;;;;4.01;44.94;96335.03;5050762;28;20218;-68
2023/02/16 04:03:04;;;;;;;4.35;3.95;;;;;;;3.79;45.18;96325.53;5050830;28;20197;-69
2023/02/16 04:05:32;;;;;;;6.82;5.32;;;;;;;3.72;45.35;96337.59;5050712;28;20624;-69
2023/02/16 04:07:59;;;;;;;5.90;5.22;;;;;;;3.74;45.50;96322.69;5050421;28;20188;-69
2023/02/16 04:10:27;;;;;;;2.72;2.50;;;;;;;3.80;45.05;96321.94;5063422;28;20231;-68
2023/02/16 04:12:54;;;;;;;14.27;8.43;;;;;;;3.74;45.42;96322.69;5051847;28;20188;-69
2023/02/16 04:15:23;;;;;;;3.55;3.25;;;;;;;3.70;45.36;96313.66;5054133;28;20200;-67
2023/02/16 04:17:50;;;;;;;0.93;0.93;;;;;;;3.64;45.50;96319.53;5061942;28;20228;-66
2023/02/16 04:20:19;;;;;;;12.80;4.82;;;;;;;3.37;45.95;96309.75;5062880;28;20234;-66
2023/02/16 04:22:46;;;;;;;6.93;5.35;;;;;;;3.27;45.99;96314.38;5063584;28;20291;-68
2023/02/16 04:25:14;;;;;;;3.42;3.22;;;;;;;3.41;45.89;96305.84;5049776;28;20559;-68
2023/02/16 04:27:42;;;;;;;10.63;6.25;;;;;;;3.57;45.33;96305.69;5050070;28;20200;-67
2023/02/16 04:30:12;;;;;;;11.05;5.55;;;;;;;3.49;45.55;96308.34;5051099;28;20212;-67
2023/02/16 04:32:39;;;;;;;4.97;4.55;;;;;;;3.38;45.80;96319.13;5050688;28;20216;-67
2023/02/16 04:35:07;;;;;;;8.95;6.53;;;;;;;3.37;45.89;96314.94;5049681;28;20905;-68
2023/02/16 04:37:35;;;;;;;5.97;5.55;;;;;;;3.35;46.34;96322.09;5049765;28;20192;-69
2023/02/16 04:40:03;;;;;;;4.50;4.20;;;;;;;3.23;46.13;96313.13;5049830;28;20209;-68
2023/02/16 04:42:30;;;;;;;9.32;8.38;;;;;;;3.33;46.09;96334.41;5050189;28;20205;-68
2023/02/16 04:44:57;;;;;;;4.18;3.88;;;;;;;3.02;45.83;96306.03;5050214;28;20254;-68
2023/02/16 04:47:27;;;;;;;7.07;6.47;;;;;;;3.32;45.64;96332.81;5053188;28;20262;-67
2023/02/16 04:49:54;;;;;;;7.15;6.45;;;;;;;3.09;45.60;96312.09;5049884;28;20224;-68
2023/02/16 04:52:21;;;;;;;9.63;7.85;;;;;;;3.12;45.93;96335.06;5049252;28;20735;-68
2023/02/16 04:54:48;;;;;;;4.82;4.32;;;;;;;3.01;45.88;96333.69;5049352;28;20207;-68
2023/02/16 04:57:16;;;;;;;4.18;3.25;;;;;;;3.02;45.78;96327.53;5049685;28;20258;-68
2023/02/16 04:59:42;;;;;;;1.70;1.60;;;;;;;2.90;46.13;96328.91;5048315;28;20667;-69
2023/02/16 05:02:09;;;;;;;5.55;3.80;;;;;;;3.15;46.00;96342.50;5047525;28;20684;-66
2023/02/16 05:04:36;;;;;;;8.75;5.65;;;;;;;3.30;45.82;96339.94;5052490;28;20616;-66
2023/02/16 05:07:03;;;;;;;13.93;6.10;;;;;;;3.28;45.61;96337.53;5052721;28;20193;-67
2023/02/16 05:09:30;;;;;;;5.35;4.03;;;;;;;3.04;45.93;96341.13;5049412;28;20848;-67
2023/02/16 05:14:44;;;;;;;3.40;3.13;;;;;;;3.33;45.50;96349.94;5049713;28;20210;-67
2023/02/16 05:17:23;;;;;;;4.55;4.22;;;;;;;3.30;45.45;96343.34;5049085;28;20325;-68
2023/02/16 05:19:53;;;;;;;4.18;3.88;;;;;;;2.98;46.54;96347.00;5059811;28;20736;-70
2023/02/16 05:22:22;;;;;;;5.90;3.85;;;;;;;3.01;46.34;96361.38;5049883;28;20209;-70
2023/02/16 05:24:49;;;;;;;16.75;6.63;;;;;;;3.03;45.92;96334.31;5051460;28;20219;-67
2023/02/16 05:27:22;;;;;;;6.00;5.50;;;;;;;3.13;46.04;96328.09;5049743;28;20262;-69
2023/02/16 05:29:50;;;;;;;2.85;2.67;;;;;;;2.95;46.53;96333.59;5049261;28;20231;-69
2023/02/16 05:32:18;;;;;;;7.03;4.95;;;;;;;3.02;46.37;96352.63;5048755;28;20231;-69
2023/02/16 05:34:45;;;;;;;3.42;3.22;;;;;;;2.88;46.57;96354.16;5048806;28;20315;-69
2023/02/16 05:37:13;;;;;;;6.20;5.60;;;;;;;3.10;46.59;96355.94;5049365;28;20239;-70
2023/02/16 05:39:40;;;;;;;5.72;3.22;;;;;;;3.01;46.57;96344.03;5049780;28;20203;-76
2023/02/16 05:42:07;;;;;;;2.65;2.45;;;;;;;3.24;46.12;96366.53;5051732;28;20691;-73
2023/02/16 05:44:35;;;;;;;2.35;2.00;;;;;;;3.28;46.05;96349.69;5059482;28;20208;-68
2023/02/16 05:47:02;;;;;;;4.40;4.03;;;;;;;3.16;46.29;96358.84;5050971;28;20200;-67
2023/02/16 05:49:29;;;;;;;3.08;2.83;;;;;;;3.37;46.03;96356.41;5048462;28;20283;-69
2023/02/16 05:51:56;;;;;;;4.18;3.22;;;;;;;3.17;46.38;96360.44;5047708;28;20242;-69
2023/02/16 05:54:23;;;;;;;4.63;4.20;;;;;;;3.16;46.19;96366.63;5048327;28;20196;-69
2023/02/16 05:56:51;;;;;;;5.53;5.03;;;;;;;3.35;45.93;96358.34;5049164;28;20192;-69
2023/02/16 05:59:19;;;;;;;6.15;5.45;;;;;;;3.20;46.43;96350.53;5048234;28;20207;-71
2023/02/16 06:01:46;;;;;;;4.68;4.30;;;;;;;3.22;46.13;96355.53;5047959;28;20250;-70
2023/02/16 06:04:18;;;;;;;6.28;5.72;;;;;;;3.38;46.08;96358.00;5049194;28;20684;-70
2023/02/16 06:06:45;;;;;;;7.40;5.43;;;;;;;3.41;46.14;96358.47;5050221;28;20210;-70
2023/02/16 06:09:12;;;;;;;4.05;3.83;;;;;;;3.26;46.45;96355.03;5059670;28;20200;-69
2023/02/16 06:11:43;;;;;;;11.57;3.75;;;;;;;3.49;46.40;96366.16;5061737;28;20280;-70
2023/02/16 06:14:18;;;;;;;4.55;3.28;;;;;;;3.86;45.89;96373.09;5058015;28;20205;-71
2023/02/16 06:16:47;;;;;;;6.50;5.90;;;;;;;3.75;46.19;96371.75;5053088;28;20226;-69
2023/02/16 06:19:15;;;;;;;7.18;4.25;;;;;;;3.89;46.22;96383.09;5051469;28;20220;-68
2023/02/16 06:21:43;;;;;;;10.32;4.47;;;;;;;3.97;45.81;96380.44;5052945;28;20280;-68
2023/02/16 06:24:11;;;;;;;8.55;7.05;;;;;;;3.95;46.37;96382.41;5053011;28;20682;-69
2023/02/16 06:26:39;;;;;;;4.55;4.22;;;;;;;4.03;45.90;96392.72;5052358;28;20262;-67
2023/02/16 06:29:06;;;;;;;21.40;9.25;;;;;;;4.11;46.08;96385.63;5053191;28;20202;-67
2023/02/16 06:31:33;;;;;;;9.85;7.00;;;;;;;3.68;46.74;96395.97;5053897;28;20405;-68
2023/02/16 06:34:03;;;;;;;26.25;7.60;;;;;;;4.00;46.25;96393.84;5051824;28;20220;-69
2023/02/16 06:36:31;;;;;;;2.67;2.25;;;;;;;3.77;46.86;96390.53;5050985;28;20224;-68
2023/02/16 06:38:58;;;;;;;3.92;3.50;;;;;;;4.13;46.39;96401.00;5050199;28;20566;-69
2023/02/16 06:41:33;;;;;;;6.57;6.05;;;;;;;4.33;45.60;96399.50;5049981;28;20678;-69
2023/02/16 06:44:02;;;;;;;6.95;6.10;;;;;;;4.33;45.83;96396.88;5050165;28;20602;-68
2023/02/16 06:46:29;;;;;;;5.72;4.93;;;;;;;4.12;46.33;96410.56;5049855;28;20288;-66
2023/02/16 06:48:56;;;;;;;9.55;8.18;;;;;;;4.27;46.35;96383.84;5050546;28;20274;-68
2023/02/16 06:51:23;;;;;;;18.80;11.80;;;;;;;4.56;45.63;96381.22;5051617;28;20294;-68
2023/02/16 06:53:50;;;;;;;7.00;6.28;;;;;;;4.69;45.37;96408.13;5052499;28;20200;-69
2023/02/16 06:56:17;;;;;;;13.00;5.88;;;;;;;4.58;45.54;96406.00;5051588;28;20235;-69
2023/02/16 06:58:43;;;;;;;12.75;7.28;;;;;;;4.73;45.26;96404.19;5052172;28;20188;-71
2023/02/16 07:01:10;;;;;;;10.90;5.80;;;;;;;4.58;46.05;96390.41;5051590;28;20204;-68
2023/02/16 07:03:38;;;;;;;6.78;6.10;;;;;;;4.74;45.90;96398.00;5052033;28;20201;-70
2023/02/16 07:06:05;;;;;;;13.75;8.18;;;;;;;4.93;45.13;96400.00;5051162;28;20584;-69
2023/02/16 07:08:33;;;;;;;6.47;5.95;;;;;;;5.03;45.17;96405.72;5051416;28;20621;-67
2023/02/16 07:11:01;;;;;;;8.32;6.82;;;;;;;4.87;45.39;96395.53;5051169;28;20299;-69
2023/02/16 07:13:28;;;;;;;6.50;5.88;;;;;;;5.10;45.27;96398.81;5050652;28;20200;-68
2023/02/16 07:15:55;;;;;;;8.45;6.63;;;;;;;5.21;44.90;96394.09;5051070;28;20201;-67
2023/02/16 07:18:22;;;;;;;4.55;4.10;;;;;;;5.07;44.85;96385.38;5051140;28;20252;-69
2023/02/16 07:20:48;;;;;;;9.07;7.43;;;;;;;5.09;45.01;96379.00;5051003;28;20223;-67
2023/02/16 07:23:16;;;;;;;10.63;6.10;;;;;;;5.10;45.35;96382.41;5051886;28;20196;-68
2023/02/16 07:25:43;;;;;;;5.65;5.22;;;;;;;4.95;45.40;96374.66;5050010;28;20559;-69
2023/02/16 07:28:10;;;;;;;6.95;5.43;;;;;;;4.96;45.83;96380.66;5051452;28;20230;-67
2023/02/16 07:30:36;;;;;;;7.55;4.43;;;;;;;5.27;45.43;96373.38;5050345;28;20312;-68
2023/02/16 07:33:05;;;;;;;3.30;3.10;;;;;;;-140.05;100.00;61859.38;5051236;28;20273;-67
2023/02/16 07:35:33;;;;;;;2.42;2.25;;;;;;;5.40;45.68;96370.88;5050392;28;20303;-67
2023/02/16 07:38:00;;;;;;;11.07;7.45;;;;;;;5.42;45.42;96357.72;5051089;28;20192;-68
2023/02/16 07:40:27;;;;;;;17.50;3.63;;;;;;;5.61;45.30;96365.66;5050944;28;20214;-70
2023/02/16 07:42:54;;;;;;;5.63;5.03;;;;;;;5.76;45.42;96355.16;5050970;28;20200;-68
2023/02/16 07:45:21;;;;;;;5.93;3.90;;;;;;;5.80;45.06;96330.38;5050974;28;20192;-68
2023/02/16 07:47:48;;;;;;;2.55;2.30;;;;;;;6.14;44.80;96361.63;5049124;28;20195;-67
2023/02/16 07:50:15;;;;;;;2.55;2.35;;;;;;;6.10;44.79;96352.59;5048428;28;20216;-69
2023/02/16 07:52:42;;;;;;;6.32;3.10;;;;;;;6.25;45.28;96366.31;5049802;28;20204;-69
2023/02/16 07:55:11;;;;;;;4.97;2.15;;;;;;;6.30;45.28;96356.09;5048867;28;20234;-68
2023/02/16 07:57:38;;;;;;;4.07;3.05;;;;;;;6.48;44.64;96351.19;5049596;28;20291;-69
2023/02/16 08:00:06;;;;;;;13.00;2.25;;;;;;;6.32;45.10;96361.94;5050854;28;20196;-68
2023/02/16 08:02:43;;;;;;;0.80;0.80;;;;;;;6.40;44.77;96342.75;5051891;28;20223;-69
2023/02/16 08:05:10;;;;;;;2.80;2.47;;;;;;;6.55;45.02;96366.84;5051401;28;20260;-67
2023/02/16 08:07:38;;;;;;;6.78;6.20;;;;;;;6.60;44.28;96360.06;5053446;28;20197;-67
2023/02/16 08:10:06;;;;;;;1.60;1.50;;;;;;;6.64;44.53;96350.84;5052156;28;20204;-67
2023/02/16 08:12:33;;;;;;;2.60;2.00;;;;;;;6.87;44.67;96368.75;5051044;28;20199;-67
2023/02/16 08:15:00;;;;;;;3.30;3.08;;;;;;;7.13;44.38;96358.41;5051014;28;20192;-68
2023/02/16 08:17:27;;;;;;;3.33;2.72;;;;;;;7.44;43.54;96357.81;5050648;28;20631;-68
2023/02/16 08:19:54;;;;;;;3.50;2.92;;;;;;;7.40;43.24;96373.06;5051242;28;20204;-68
2023/02/16 08:22:20;;;;;;;2.72;2.50;;;;;;;7.45;43.11;96375.06;5050732;28;20559;-67
2023/02/16 08:24:47;;;;;;;1.15;1.15;;;;;;;7.47;43.07;96367.84;5050982;28;20209;-66
2023/02/16 08:27:15;;;;;;;2.00;1.88;;;;;;;7.37;42.52;96350.00;5050040;28;20203;-66
2023/02/16 08:29:43;;;;;;;1.83;1.52;;;;;;;7.64;43.07;96379.50;5051251;28;20200;-68
2023/02/16 08:32:13;;;;;;;9.27;6.95;;;;;;;8.01;43.10;96366.59;5049935;28;20301;-69
2023/02/16 08:34:40;;;;;;;3.72;3.00;;;;;;;7.89;42.97;96362.22;5050919;28;20192;-67
2023/02/16 08:37:12;;;;;;;2.75;2.00;;;;;;;8.31;42.58;96374.81;5049316;28;20208;-67
2023/02/16 08:39:39;;;;;;;7.05;2.90;;;;;;;8.55;41.96;96368.13;5050961;28;20299;-68
2023/02/16 08:42:07;;;;;;;10.45;6.15;;;;;;;7.84;42.30;96375.06;5049577;28;21612;-68
2023/02/16 08:44:34;;;;;;;6.65;3.80;;;;;;;8.50;41.74;96368.75;5050800;28;20626;-67
2023/02/16 08:47:01;;;;;;;3.25;2.75;;;;;;;8.69;41.67;96375.69;5050488;28;20359;-68
2023/02/16 08:49:28;;;;;;;4.40;4.00;;;;;;;8.63;42.14;96367.91;5051200;28;20258;-68
2023/02/16 08:51:57;;;;;;;1.83;1.73;;;;;;;9.05;41.32;96375.91;5049960;28;20231;-66
2023/02/16 08:54:26;;;;;;;2.63;1.17;;;;;;;8.87;42.03;96361.94;5050845;28;20196;-69
2023/02/16 08:56:54;;;;;;;5.18;3.65;;;;;;;9.04;41.97;96365.66;5049901;28;20188;-71
2023/02/16 08:59:23;;;;;;;3.78;1.52;;;;;;;9.32;41.36;96354.84;5050463;28;20205;-67
2023/02/16 09:01:52;;;;;;;1.67;1.58;;;;;;;9.48;41.31;96359.56;5055042;28;20201;-67
2023/02/16 09:04:20;;;;;;;1.13;1.13;;;;;;;9.24;39.92;96353.28;5051738;28;20200;-66
2023/02/16 09:06:50;;;;;;;5.85;4.13;;;;;;;9.29;41.36;96350.03;5049970;28;20243;-67
2023/02/16 09:09:17;;;;;;;8.90;2.40;;;;;;;9.69;40.51;96351.34;5049208;28;20643;-69
2023/02/16 09:11:45;;;;;;;3.55;3.15;;;;;;;9.75;40.16;96345.25;5049808;28;20226;-68
2023/02/16 09:14:12;;;;;;;2.00;1.90;;;;;;;9.91;39.74;96355.16;5050033;28;20620;-70
2023/02/16 09:16:44;;;;;;;1.20;1.20;;;;;;;10.02;39.72;96355.25;5049926;28;20228;-67
2023/02/16 09:19:19;;;;;;;3.60;2.97;;;;;;;10.20;39.81;96338.78;5049738;28;20282;-69
2023/02/16 09:21:49;;;;;;;2.65;2.42;;;;;;;10.35;39.19;96338.44;5049272;28;20319;-69
2023/02/16 09:24:16;;;;;;;2.85;2.65;;;;;;;10.52;38.92;96347.31;5049754;28;20861;-68
2023/02/16 09:26:44;;;;;;;3.30;3.08;;;;;;;10.28;39.10;96325.41;5048915;28;20192;-68
2023/02/16 09:29:12;;;;;;;2.67;2.47;;;;;;;10.49;39.04;96338.06;5051492;28;20196;-69
2023/02/16 09:31:41;;;;;;;1.83;1.70;;;;;;;10.87;38.42;96330.75;5059922;28;20266;-69
2023/02/16 09:34:20;;;;;;;1.23;1.17;;;;;;;10.80;37.54;96330.00;5049961;28;20435;-67
2023/02/16 09:36:48;;;;;;;3.13;2.72;;;;;;;11.05;37.53;96299.22;5049446;28;20196;-68
2023/02/16 09:39:16;;;;;;;4.90;2.75;;;;;;;11.30;37.05;96324.47;5050017;28;20200;-68
2023/02/16 09:42:18;;;;;;;3.63;3.20;;;;;;;11.66;36.80;96317.28;5049930;28;20214;-67
2023/02/16 09:44:51;;;;;;;1.07;1.07;;;;;;;11.65;36.79;96312.25;5053782;28;20545;-66
2023/02/16 09:47:21;;;;;;;1.60;1.50;;;;;;;11.98;37.01;96309.88;5051945;28;20439;-67
2023/02/16 09:49:50;;;;;;;1.70;1.40;;;;;;;12.29;35.87;96306.84;5053895;28;20467;-68
2023/02/16 09:52:39;;;;;;;1.70;1.60;;;;;;;12.72;34.95;96304.56;5053505;28;20482;-67
2023/02/16 09:55:15;;;;;;;1.60;1.50;;;;;;;12.83;34.53;96301.09;5053789;28;20477;-67
2023/02/16 09:58:26;;;;;;;1.90;1.80;;;;;;;13.06;33.70;96295.75;5055035;28;20504;-69
2023/02/16 10:01:01;;;;;;;0.90;0.90;;;;;;;12.96;33.55;96285.03;5063996;28;20519;-68
2023/02/16 10:03:40;;;;;;;1.77;1.13;;;;;;;12.46;33.62;96272.75;5056629;28;20446;-66
2023/02/16 10:06:13;;;;;;;1.47;1.37;;;;;;;12.19;35.06;96289.03;5053954;28;20480;-69
2023/02/16 10:08:44;;;;;;;2.43;1.63;;;;;;;12.95;34.60;96291.34;5053421;28;20446;-71
2023/02/16 10:11:45;;;;;;;2.37;2.17;;;;;;;13.23;33.93;96285.25;5058475;28;20478;-66
2023/02/16 10:14:35;;;;;;;3.30;1.47;;;;;;;13.59;33.32;96279.53;5068337;28;20448;-67
2023/02/16 10:17:30;;;;;;;6.53;2.80;;;;;;;13.31;33.79;96265.63;5067366;28;20439;-66
2023/02/16 10:20:15;;;;;;;5.87;3.53;;;;;;;13.62;33.78;96257.16;5059380;28;20902;-70
2023/02/16 10:22:53;;;;;;;3.10;2.47;;;;;;;13.63;33.77;96259.56;5053383;28;20802;-70
2023/02/16 10:25:28;;;;;;;1.10;1.10;;;;;;;13.68;33.55;96254.38;5055542;28;20442;-69
2023/02/16 10:28:15;;;;;;;1.57;1.47;;;;;;;13.82;33.47;96254.84;5055595;28;20438;-67
2023/02/16 10:30:48;;;;;;;1.33;1.23;;;;;;;14.04;32.29;96255.66;5053055;28;20451;-69
2023/02/16 10:33:25;;;;;;;1.67;1.17;;;;;;;13.90;33.07;96247.31;5053094;28;20894;-69
2023/02/16 10:36:08;;;;;;;6.10;2.83;;;;;;;14.14;33.06;96251.31;5052666;28;20821;-67
2023/02/16 10:38:40;;;;;;;1.20;1.13;;;;;;;14.24;32.87;96237.47;5052783;28;20899;-68
2023/02/16 10:41:21;;;;;;;5.93;1.83;;;;;;;14.01;32.82;96248.25;5052863;28;20439;-68
2023/02/16 10:44:16;;;;;;;2.00;1.90;;;;;;;13.86;32.89;96246.22;5065785;28;20502;-69
2023/02/16 10:46:46;;;;;;;1.10;1.10;;;;;;;13.98;32.54;96240.81;5052812;28;20848;-68
2023/02/16 10:49:16;;;;;;;2.23;2.03;;;;;;;13.93;32.40;96240.75;5053493;28;20473;-68
2023/02/16 10:51:48;;;;;;;2.70;2.47;;;;;;;14.14;32.51;96226.81;5052405;28;20485;-69
2023/02/16 10:54:24;;;;;;;1.33;1.23;;;;;;;14.28;31.87;96224.63;5053146;28;20964;-68
2023/02/16 10:57:03;;;;;;;2.80;2.60;;;;;;;13.89;32.14;96226.47;5052104;28;20438;-69
2023/02/16 10:59:44;;;;;;;0.77;0.77;;;;;;;14.11;32.38;96219.38;5051380;28;20477;-69
2023/02/16 11:02:33;;;;;;;1.20;1.10;;;;;;;13.48;31.97;96226.94;5052555;28;20501;-71
2023/02/16 11:05:00;;;;;;;0.50;0.50;;;;;;;13.69;32.72;96218.28;5052432;28;20530;-71
2023/02/16 11:07:30;;;;;;;1.50;1.40;;;;;;;13.85;31.75;96201.69;5052292;28;20443;-71
2023/02/16 11:10:01;;;;;;;3.20;2.57;;;;;;;13.81;31.61;96209.25;5052829;28;20835;-70
2023/02/16 11:12:38;;;;;;;5.73;3.13;;;;;;;13.91;32.36;96200.69;5052175;28;20475;-69
2023/02/16 11:15:18;;;;;;;1.23;1.13;;;;;;;14.48;32.81;96196.66;5051874;28;20434;-68
2023/02/16 11:17:52;;;;;;;0.90;0.90;;;;;;;14.13;32.28;96190.94;5052264;28;20466;-67
2023/02/16 11:20:34;;;;;;;10.97;1.50;;;;;;;13.88;31.70;96203.81;5051936;28;20457;-69
2023/02/16 11:23:16;;;;;;;1.73;1.40;;;;;;;13.87;31.73;96191.66;5052210;28;20455;-69
2023/02/16 11:25:56;;;;;;;1.23;1.13;;;;;;;14.05;32.46;96172.94;5051469;28;20522;-68
2023/02/16 11:28:30;;;;;;;1.77;1.67;;;;;;;14.16;31.87;96179.91;5050621;28;20454;-71
2023/02/16 11:31:25;;;;;;;7.47;3.27;;;;;;;14.28;32.20;96183.25;5050971;28;20500;-69
2023/02/16 11:34:05;;;;;;;5.00;3.70;;;;;;;14.52;31.79;96174.03;5049119;28;20649;-69
2023/02/16 11:36:41;;;;;;;3.00;2.77;;;;;;;14.60;31.61;96176.19;5052492;28;20478;-67
2023/02/16 11:39:24;;;;;;;1.47;1.40;;;;;;;14.60;31.36;96173.56;5055207;28;20537;-67
2023/02/16 11:41:55;;;;;;;4.00;1.73;;;;;;;14.69;31.10;96156.22;5064937;28;20504;-69
2023/02/16 11:44:32;;;;;;;3.70;2.80;;;;;;;14.80;31.81;96165.84;5050545;28;20809;-67
2023/02/16 11:47:20;;;;;;;1.90;1.77;;;;;;;14.67;30.64;96153.03;5051237;28;20485;-69
2023/02/16 11:49:50;;;;;;;1.20;1.20;;;;;;;15.04;30.94;96156.53;5051345;28;20483;-66
2023/02/16 11:52:23;;;;;;;1.53;1.43;;;;;;;15.18;29.22;96156.91;5055226;28;20474;-68
2023/02/16 11:54:56;;;;;;;0.57;0.57;;;;;;;15.02;30.16;96132.22;5057184;28;20439;-67
2023/02/16 11:57:27;;;;;;;2.23;1.17;;;;;;;15.49;29.28;96153.44;5063051;28;20443;-67
2023/02/16 11:59:55;;;;;;;1.00;1.00;;;;;;;15.15;30.13;96137.09;5051498;28;20537;-68
2023/02/16 12:02:29;;;;;;;4.00;1.83;;;;;;;14.84;29.56;96129.19;5051521;28;20443;-69
2023/02/16 12:05:03;;;;;;;1.37;1.27;;;;;;;15.50;28.72;96143.66;5051134;28;20815;-69
2023/02/16 12:08:01;;;;;;;1.17;1.10;;;;;;;15.42;28.35;96134.38;5050503;28;20435;-68
2023/02/16 12:10:56;;;;;;;0.73;0.73;;;;;;;15.87;29.15;96125.91;5050701;28;20458;-69
2023/02/16 12:13:44;;;;;;;4.90;2.53;;;;;;;16.60;28.35;96128.25;5050556;28;20522;-69
2023/02/16 12:16:29;;;;;;;2.37;2.20;;;;;;;16.70;28.47;96117.66;5050727;28;20877;-68
2023/02/16 12:19:23;;;;;;;2.90;2.70;;;;;;;17.16;27.90;96111.31;5050801;28;20473;-70
2023/02/16 12:21:55;;;;;;;2.37;1.70;;;;;;;17.30;27.44;96100.19;5050608;28;20562;-68
2023/02/16 12:25:06;;;;;;;2.20;2.00;;;;;;;17.84;27.19;96079.88;5051529;28;20446;-69
2023/02/16 12:27:47;;;;;;;2.50;2.23;;;;;;;17.03;26.52;96089.88;5048238;28;20524;-69
2023/02/16 12:30:39;;;;;;;0.87;0.87;;;;;;;16.96;26.63;96100.75;5050103;28;20488;-69
2023/02/16 12:33:25;;;;;;;10.23;4.10;;;;;;;17.28;26.14;96097.78;5050500;28;20573;-71
2023/02/16 12:36:27;;;;;;;3.00;2.43;;;;;;;18.13;25.20;96088.78;5050557;28;20470;-68
2023/02/16 12:39:16;;;;;;;10.37;3.03;;;;;;;19.17;24.51;96078.47;5084182;28;20464;-68